This is the latest recevied weather packets stored in our database for station/object SV6DBG-10. If no packets are shown the sender has not sent any weather packets the latest 10 day(s).
| Time | Temp. | Humidity | Pressure | Rain* | Wind** | Luminosity | Snow |
|---|---|---|---|---|---|---|---|
| 1777242038 | 12.78° C | 69% | 1021.2 hPa | - | - | - | - |
| 1777241138 | 12.78° C | 68% | 1021.2 hPa | - | - | - | - |
| 1777240237 | 12.78° C | 69% | 1021.1 hPa | - | - | - | - |
| 1777239337 | 13.33° C | 69% | 1021 hPa | - | - | - | - |
| 1777238437 | 13.89° C | 68% | 1021.1 hPa | - | - | - | - |
| 1777237537 | 15° C | 65% | 1021 hPa | - | - | - | - |
| 1777236637 | 15° C | 64% | 1020.8 hPa | - | - | - | - |
| 1777235737 | 15.56° C | 63% | 1020.8 hPa | - | - | - | - |
| 1777234836 | 15° C | 64% | 1020.8 hPa | - | - | - | - |
| 1777233936 | 15.56° C | 63% | 1020.6 hPa | - | - | - | - |
| 1777233035 | 15° C | 61% | 1018.9 hPa | - | - | - | - |
| 1777232129 | 16.11° C | 59% | 1020.5 hPa | - | - | - | - |
| 1777231229 | 16.67° C | 57% | 1020.3 hPa | - | - | - | - |
| 1777230329 | 16.67° C | 57% | 1020.2 hPa | - | - | - | - |
| 1777229429 | 16.67° C | 55% | 1020.1 hPa | - | - | - | - |
| 1777228528 | 17.22° C | 56% | 1019.8 hPa | - | - | - | - |
| 1777227628 | 17.78° C | 53% | 1019.6 hPa | - | - | - | - |
| 1777226728 | 18.33° C | 54% | 1019.3 hPa | - | - | - | - |
| 1777225828 | 18.89° C | 48% | 1019.1 hPa | - | - | - | - |
| 1777224928 | 18.89° C | 49% | 1018.8 hPa | - | - | - | - |
| 1777224027 | 19.44° C | 48% | 1018.7 hPa | - | - | - | - |
| 1777223127 | 20.56° C | 44% | 1018.5 hPa | - | - | - | - |
| 1777222227 | 22.22° C | 41% | 1018.3 hPa | - | - | - | - |
| 1777221327 | 23.33° C | 36% | 1018.1 hPa | - | - | - | - |
| 1777220427 | 25° C | 33% | 1018 hPa | - | - | - | - |
* Rain since midnight (hover to see other rain measurements)
** Current wind speed in m/s (hover to see current wind gust speed)